createdAt,value
2022-08-11T00:00:21.072Z,85.92
2022-08-11T00:03:08.882Z,86.34
2022-08-11T00:05:56.537Z,86.15
2022-08-11T00:08:42.509Z,86.09
2022-08-11T00:11:41.545Z,86.02
2022-08-11T00:14:36.746Z,86.14
2022-08-11T00:17:28.142Z,86.19
2022-08-11T00:20:16.941Z,85.98
2022-08-11T00:23:08.594Z,85.38
2022-08-11T00:25:54.456Z,85.04
2022-08-11T00:28:41.542Z,85.42
2022-08-11T00:31:30.005Z,86.08
2022-08-11T00:34:18.519Z,86.41
2022-08-11T00:37:07.687Z,86.27
2022-08-11T00:39:55.004Z,86.25
2022-08-11T00:43:03.483Z,85.67
2022-08-11T00:46:03.824Z,85.24
2022-08-11T00:48:57.859Z,84.88
2022-08-11T00:52:07.529Z,84.78
2022-08-11T00:55:04.533Z,84.54
2022-08-11T00:58:10.696Z,84.68
2022-08-11T01:01:09.600Z,84.96
2022-08-11T01:04:14.604Z,85.44
2022-08-11T01:08:00.446Z,86.49
2022-08-11T01:11:16.057Z,86.61
2022-08-11T01:14:18.764Z,88.88
2022-08-11T01:17:57.151Z,90.44
2022-08-11T01:21:03.896Z,92.46
2022-08-11T01:24:16.342Z,94.19
2022-08-11T01:27:18.812Z,94.82
2022-08-11T01:30:30.058Z,95.28
2022-08-11T01:33:45.522Z,95.81
2022-08-11T01:36:44.142Z,95.35
2022-08-11T01:39:51.378Z,95.55
2022-08-11T01:43:00.972Z,96.90
2022-08-11T01:45:50.252Z,97.31
2022-08-11T01:48:49.778Z,97.43
2022-08-11T01:51:51.940Z,97.25
2022-08-11T01:54:37.139Z,97.00
2022-08-11T01:57:38.625Z,96.38
2022-08-11T02:00:28.929Z,96.99
2022-08-11T02:03:45.719Z,97.32
2022-08-11T02:06:56.616Z,98.63
2022-08-11T02:09:56.513Z,99.12
2022-08-11T02:12:53.051Z,99.38
2022-08-11T02:15:56.763Z,99.01
2022-08-11T02:19:08.782Z,98.59
2022-08-11T02:22:24.910Z,97.97
2022-08-11T02:25:22.445Z,97.38
2022-08-11T02:28:34.666Z,97.17
2022-08-11T02:32:10.980Z,96.95
2022-08-11T02:35:13.133Z,96.71
2022-08-11T02:38:18.581Z,96.01
2022-08-11T02:41:34.586Z,95.91
2022-08-11T02:44:49.163Z,95.64
2022-08-11T02:48:41.082Z,95.71
2022-08-11T02:51:39.259Z,95.62
2022-08-11T02:54:35.985Z,95.13
2022-08-11T02:57:29.453Z,94.70
2022-08-11T03:00:17.703Z,95.04
2022-08-11T03:03:18.326Z,95.53
2022-08-11T03:06:12.510Z,95.79
2022-08-11T03:09:18.021Z,95.91
2022-08-11T03:12:53.130Z,95.61
2022-08-11T03:16:40.207Z,94.52
2022-08-11T03:19:57.188Z,93.79
2022-08-11T03:23:20.165Z,93.74
2022-08-11T03:26:38.538Z,93.93
2022-08-11T03:29:34.270Z,93.77
2022-08-11T03:32:29.875Z,93.68
2022-08-11T03:35:21.545Z,93.31
2022-08-11T03:38:15.259Z,93.45
2022-08-11T03:42:01.259Z,93.29
2022-08-11T03:45:02.196Z,93.32
2022-08-11T03:47:55.614Z,92.88
2022-08-11T03:50:55.668Z,92.84
2022-08-11T03:53:56.138Z,92.76
2022-08-11T03:56:58.556Z,93.36
2022-08-11T04:00:20.654Z,93.35
2022-08-11T04:03:08.538Z,94.40
2022-08-11T04:06:30.499Z,94.38
2022-08-11T04:09:46.163Z,94.66
2022-08-11T04:13:03.899Z,94.55
2022-08-11T04:16:11.624Z,94.65
2022-08-11T04:19:39.989Z,94.32
2022-08-11T04:22:49.541Z,93.99
2022-08-11T04:26:15.865Z,93.68
2022-08-11T04:29:36.045Z,93.52
2022-08-11T04:32:37.197Z,93.66
2022-08-11T04:35:30.606Z,94.07
2022-08-11T04:38:34.384Z,94.85
2022-08-11T04:42:31.024Z,95.61
2022-08-11T04:45:33.757Z,95.91
2022-08-11T04:49:27.507Z,96.35
2022-08-11T04:52:38.462Z,96.58
2022-08-11T04:55:48.911Z,97.18
2022-08-11T04:59:37.233Z,97.21
2022-08-11T05:02:38.026Z,98.24
2022-08-11T05:06:06.287Z,99.13
2022-08-11T05:08:54.452Z,99.99
2022-08-11T05:12:01.980Z,99.67
2022-08-11T05:15:11.143Z,99.41
2022-08-11T05:18:36.045Z,98.99
2022-08-11T05:21:45.298Z,99.31
2022-08-11T05:25:00.871Z,99.56
2022-08-11T05:28:29.342Z,100.00
2022-08-11T05:31:35.196Z,100.00
2022-08-11T05:34:54.868Z,100.00
2022-08-11T05:38:03.258Z,100.00
2022-08-11T05:41:12.486Z,100.00
2022-08-11T05:44:20.897Z,100.00
2022-08-11T05:47:26.535Z,100.00
2022-08-11T05:50:33.101Z,100.00
2022-08-11T05:53:45.727Z,100.00
2022-08-11T05:56:34.170Z,100.00
2022-08-11T05:59:19.746Z,100.00
2022-08-11T06:02:07.471Z,100.00
2022-08-11T06:04:58.019Z,100.00
2022-08-11T06:07:48.564Z,100.00
2022-08-11T06:10:41.281Z,100.00
2022-08-11T06:13:27.570Z,100.00
2022-08-11T06:16:18.033Z,100.00
2022-08-11T06:19:04.297Z,100.00
2022-08-11T06:21:51.875Z,100.00
2022-08-11T06:24:41.601Z,100.00
2022-08-11T06:27:30.393Z,100.00
2022-08-11T06:30:15.442Z,100.00
2022-08-11T06:33:01.727Z,100.00
2022-08-11T06:36:07.968Z,100.00
2022-08-11T06:38:59.245Z,100.00
2022-08-11T06:42:13.829Z,100.00
2022-08-11T06:45:11.958Z,100.00
2022-08-11T06:48:00.735Z,100.00
2022-08-11T06:51:12.545Z,100.00
2022-08-11T06:54:05.666Z,100.00
2022-08-11T06:57:29.813Z,100.00
2022-08-11T07:00:29.361Z,100.00
2022-08-11T07:03:19.611Z,100.00
2022-08-11T07:06:34.504Z,100.00
2022-08-11T07:10:09.699Z,100.00
2022-08-11T07:13:38.169Z,100.00
2022-08-11T07:16:28.567Z,100.00
2022-08-11T07:19:36.098Z,100.00
2022-08-11T07:22:43.269Z,100.00
2022-08-11T07:25:50.382Z,100.00
2022-08-11T07:28:58.244Z,100.00
2022-08-11T07:31:53.986Z,100.00
2022-08-11T07:34:45.374Z,100.00
2022-08-11T07:37:33.845Z,100.00
2022-08-11T07:40:23.810Z,100.00
2022-08-11T07:43:09.812Z,100.00
2022-08-11T07:46:14.625Z,99.73
2022-08-11T07:49:21.268Z,98.13
2022-08-11T07:52:26.523Z,96.63
2022-08-11T07:55:17.208Z,95.18
2022-08-11T07:58:21.695Z,93.78
2022-08-11T08:01:30.421Z,92.74
2022-08-11T08:04:36.730Z,91.32
2022-08-11T08:07:41.929Z,89.57
2022-08-11T08:10:46.761Z,88.49
2022-08-11T08:13:53.082Z,87.84
2022-08-11T08:16:58.066Z,87.56
2022-08-11T08:19:47.873Z,86.84
2022-08-11T08:22:38.752Z,85.72
2022-08-11T08:25:29.516Z,85.75
2022-08-11T08:28:20.768Z,84.79
2022-08-11T08:31:06.390Z,84.74
2022-08-11T08:33:52.506Z,83.89
2022-08-11T08:36:39.871Z,83.22
2022-08-11T08:39:24.914Z,82.34
2022-08-11T08:42:13.193Z,81.45
2022-08-11T08:45:15.741Z,80.58
2022-08-11T08:48:08.601Z,79.85
2022-08-11T08:51:21.914Z,79.08
2022-08-11T08:54:11.351Z,78.25
2022-08-11T08:56:58.855Z,76.12
2022-08-11T08:59:48.742Z,75.38
2022-08-11T09:02:35.327Z,74.21
2022-08-11T09:05:21.351Z,72.86
2022-08-11T09:08:06.640Z,72.53
2022-08-11T09:11:14.032Z,70.81
2022-08-11T09:14:05.059Z,69.97
2022-08-11T09:16:53.562Z,68.72
2022-08-11T09:19:38.881Z,67.47
2022-08-11T09:22:42.927Z,66.17
2022-08-11T09:25:50.262Z,66.20
2022-08-11T09:28:37.554Z,65.64
2022-08-11T09:31:22.906Z,63.94
2022-08-11T09:34:11.162Z,61.82
2022-08-11T09:37:28.551Z,61.63
2022-08-11T09:40:31.055Z,61.26
2022-08-11T09:43:37.569Z,60.49
2022-08-11T09:46:29.189Z,59.53
2022-08-11T09:49:14.254Z,58.65
2022-08-11T09:52:05.330Z,57.22
2022-08-11T09:54:51.425Z,56.96
2022-08-11T09:57:58.349Z,55.64
2022-08-11T10:00:47.645Z,55.61
2022-08-11T10:03:40.254Z,54.38
2022-08-11T10:06:47.452Z,53.25
2022-08-11T10:09:54.526Z,52.85
2022-08-11T10:12:46.658Z,52.31
2022-08-11T10:15:38.134Z,51.10
2022-08-11T10:18:42.912Z,49.39
2022-08-11T10:21:36.169Z,49.37
2022-08-11T10:24:40.446Z,49.61
2022-08-11T10:28:30.739Z,49.46
2022-08-11T10:30:51.801Z,48.10
2022-08-11T10:33:59.482Z,47.81
2022-08-11T10:36:49.513Z,47.64
2022-08-11T10:39:35.831Z,46.68
2022-08-11T10:42:57.455Z,46.25
2022-08-11T10:46:05.258Z,45.88
2022-08-11T10:48:50.724Z,45.74
2022-08-11T10:51:58.581Z,45.40
2022-08-11T10:55:02.984Z,46.02
2022-08-11T10:58:07.256Z,45.61
2022-08-11T11:00:56.859Z,45.73
2022-08-11T11:03:43.572Z,45.18
2022-08-11T11:06:56.163Z,45.27
2022-08-11T11:09:47.229Z,45.84
2022-08-11T11:13:06.449Z,44.68
2022-08-11T11:16:30.757Z,43.81
2022-08-11T11:19:23.916Z,43.91
2022-08-11T11:22:30.869Z,43.58
2022-08-11T11:25:24.813Z,43.38
2022-08-11T11:28:24.320Z,42.04
2022-08-11T11:31:58.470Z,41.27
2022-08-11T11:35:04.370Z,41.07
2022-08-11T11:37:56.101Z,40.85
2022-08-11T11:41:10.552Z,39.63
2022-08-11T11:43:57.291Z,37.88
2022-08-11T11:46:47.337Z,38.13
2022-08-11T11:49:33.312Z,38.32
2022-08-11T11:52:21.782Z,38.21
2022-08-11T11:55:07.775Z,36.98
2022-08-11T11:58:18.656Z,36.37
2022-08-11T12:01:16.875Z,35.99
2022-08-11T12:04:06.080Z,35.46
2022-08-11T12:07:11.868Z,35.83
2022-08-11T12:09:58.432Z,35.81
2022-08-11T12:13:04.083Z,36.04
2022-08-11T12:16:32.075Z,35.68
2022-08-11T12:19:00.622Z,34.94
2022-08-11T12:22:05.273Z,34.31
2022-08-11T12:25:09.020Z,33.99
2022-08-11T12:27:55.874Z,34.12
2022-08-11T12:33:34.132Z,33.12
2022-08-11T12:36:21.453Z,32.99
2022-08-11T12:39:23.006Z,32.77
2022-08-11T12:42:30.210Z,32.33
2022-08-11T12:45:27.875Z,31.97
2022-08-11T12:48:59.910Z,31.61
2022-08-11T12:52:14.580Z,30.85
2022-08-11T12:55:42.881Z,30.68
2022-08-11T12:58:49.670Z,31.05
2022-08-11T13:01:55.919Z,30.43
2022-08-11T13:05:01.512Z,29.77
2022-08-11T13:07:50.675Z,30.03
2022-08-11T13:10:56.300Z,29.45
2022-08-11T13:13:53.994Z,28.92
2022-08-11T13:17:01.983Z,29.14
2022-08-11T13:19:49.790Z,29.45
2022-08-11T13:22:36.872Z,28.42
2022-08-11T13:25:25.508Z,28.37
2022-08-11T13:28:12.603Z,28.56
2022-08-11T13:31:14.866Z,27.89
2022-08-11T13:34:01.770Z,28.18
2022-08-11T13:36:52.993Z,27.54
2022-08-11T13:39:38.222Z,27.87
2022-08-11T13:42:23.339Z,27.08
2022-08-11T13:45:09.743Z,27.58
2022-08-11T13:48:00.033Z,26.33
2022-08-11T13:51:04.556Z,26.53
2022-08-11T13:53:49.897Z,26.20
2022-08-11T13:56:40.972Z,26.93
2022-08-11T13:59:29.831Z,27.04
2022-08-11T14:02:22.096Z,26.79
2022-08-11T14:05:17.384Z,26.61
2022-08-11T14:08:07.811Z,27.00
2022-08-11T14:12:23.159Z,27.05
2022-08-11T14:14:26.472Z,25.76
2022-08-11T14:17:13.779Z,25.88
2022-08-11T14:20:39.737Z,26.24
2022-08-11T14:23:33.854Z,25.67
2022-08-11T14:26:24.305Z,25.40
2022-08-11T14:32:12.061Z,25.55
2022-08-11T14:34:58.887Z,25.32
2022-08-11T14:37:44.430Z,25.09
2022-08-11T14:40:47.993Z,25.69
2022-08-11T14:44:13.051Z,25.01
2022-08-11T14:47:23.375Z,24.80
2022-08-11T14:50:14.561Z,25.12
2022-08-11T14:53:04.909Z,24.86
2022-08-11T14:56:10.184Z,25.14
2022-08-11T14:58:57.758Z,25.17
2022-08-11T15:02:04.370Z,24.82
2022-08-11T15:04:51.018Z,24.95
2022-08-11T15:07:37.599Z,25.23
2022-08-11T15:10:23.082Z,25.50
2022-08-11T15:13:08.601Z,25.50
2022-08-11T15:16:12.176Z,25.43
2022-08-11T15:18:58.922Z,25.54
2022-08-11T15:22:02.630Z,26.62
2022-08-11T15:24:47.937Z,26.49
2022-08-11T15:27:52.843Z,27.22
2022-08-11T15:30:57.474Z,27.27
2022-08-11T15:34:03.761Z,28.50
2022-08-11T15:37:09.445Z,28.44
2022-08-11T15:40:31.620Z,28.32
2022-08-11T15:43:46.149Z,28.59
2022-08-11T15:46:45.148Z,29.08
2022-08-11T15:50:11.421Z,29.24
2022-08-11T15:52:56.091Z,28.39
2022-08-11T15:55:43.431Z,28.79
2022-08-11T15:59:10.702Z,28.15
2022-08-11T16:02:32.697Z,28.48
2022-08-11T16:05:45.228Z,28.84
2022-08-11T16:08:32.611Z,29.18
2022-08-11T16:11:21.383Z,29.22
2022-08-11T16:14:29.590Z,30.10
2022-08-11T16:17:18.588Z,30.53
2022-08-11T16:20:05.574Z,30.50
2022-08-11T16:23:00.333Z,30.11
2022-08-11T16:27:06.891Z,30.92
2022-08-11T16:28:57.798Z,30.79
2022-08-11T16:32:03.865Z,31.30
2022-08-11T16:35:18.853Z,31.06
2022-08-11T16:38:24.600Z,31.13
2022-08-11T16:41:13.753Z,31.46
2022-08-11T16:44:17.509Z,32.13
2022-08-11T16:48:03.553Z,31.87
2022-08-11T16:50:25.505Z,32.12
2022-08-11T16:53:10.705Z,31.60
2022-08-11T16:56:00.029Z,31.67
2022-08-11T16:59:08.965Z,31.68
2022-08-11T17:01:58.006Z,32.47
2022-08-11T17:05:10.122Z,32.39
2022-08-11T17:08:16.948Z,32.19
2022-08-11T17:11:21.953Z,31.94
2022-08-11T17:14:12.945Z,31.66
2022-08-11T17:17:00.945Z,32.01
2022-08-11T17:20:40.770Z,31.80
2022-08-11T17:23:15.011Z,32.52
2022-08-11T17:26:04.401Z,32.59
2022-08-11T17:28:56.307Z,32.38
2022-08-11T17:32:00.275Z,32.99
2022-08-11T17:35:05.168Z,32.81
2022-08-11T17:37:52.361Z,32.84
2022-08-11T17:41:00.420Z,33.06
2022-08-11T17:44:06.269Z,33.42
2022-08-11T17:47:10.197Z,32.65
2022-08-11T17:49:56.274Z,32.99
2022-08-11T17:53:19.916Z,33.16
2022-08-11T17:56:24.824Z,33.47
2022-08-11T17:59:32.246Z,33.52
2022-08-11T18:02:40.052Z,33.78
2022-08-11T18:05:29.442Z,33.88
2022-08-11T18:08:34.095Z,34.48
2022-08-11T18:12:11.473Z,34.21
2022-08-11T18:15:06.985Z,34.57
2022-08-11T18:18:10.909Z,34.70
2022-08-11T18:21:14.671Z,34.91
2022-08-11T18:24:23.409Z,35.18
2022-08-11T18:27:30.147Z,35.33
2022-08-11T18:30:34.969Z,35.94
2022-08-11T18:34:05.814Z,35.99
2022-08-11T18:37:36.722Z,36.42
2022-08-11T18:40:47.734Z,36.75
2022-08-11T18:43:55.953Z,37.24
2022-08-11T18:47:08.073Z,37.39
2022-08-11T18:50:15.018Z,37.40
2022-08-11T18:53:32.721Z,37.87
2022-08-11T18:56:38.530Z,37.84
2022-08-11T18:59:45.774Z,38.10
2022-08-11T19:02:51.353Z,38.25
2022-08-11T19:06:35.982Z,38.40
2022-08-11T19:09:25.998Z,38.85
2022-08-11T19:12:31.172Z,39.22
2022-08-11T19:15:37.225Z,39.44
2022-08-11T19:18:41.788Z,39.48
2022-08-11T19:21:48.292Z,39.90
2022-08-11T19:24:55.619Z,40.21
2022-08-11T19:28:00.394Z,40.51
2022-08-11T19:31:05.233Z,41.22
2022-08-11T19:34:11.000Z,41.67
2022-08-11T19:37:15.222Z,41.86
2022-08-11T19:40:28.067Z,42.20
2022-08-11T19:43:32.214Z,42.69
2022-08-11T19:46:41.755Z,42.88
2022-08-11T19:49:45.346Z,43.17
2022-08-11T19:52:50.470Z,44.22
2022-08-11T19:55:54.550Z,45.20
2022-08-11T19:58:58.752Z,46.80
2022-08-11T20:02:13.307Z,47.91
2022-08-11T20:05:17.984Z,48.91
2022-08-11T20:08:23.815Z,49.62
2022-08-11T20:11:30.777Z,50.74
2022-08-11T20:14:37.682Z,51.23
2022-08-11T20:17:45.027Z,51.81
2022-08-11T20:20:49.690Z,52.47
2022-08-11T20:23:54.903Z,53.07
2022-08-11T20:26:58.745Z,53.68
2022-08-11T20:30:04.045Z,54.12
2022-08-11T20:33:09.338Z,54.37
2022-08-11T20:36:13.117Z,54.21
2022-08-11T20:39:18.609Z,55.02
2022-08-11T20:42:28.439Z,55.03
2022-08-11T20:45:35.887Z,55.19
2022-08-11T20:48:41.535Z,55.70
2022-08-11T20:51:46.357Z,56.11
2022-08-11T20:54:52.632Z,56.61
2022-08-11T20:58:04.039Z,56.95
2022-08-11T21:01:19.051Z,57.42
2022-08-11T21:04:28.025Z,57.75
2022-08-11T21:07:34.836Z,57.98
2022-08-11T21:10:40.864Z,58.52
2022-08-11T21:13:53.006Z,58.62
2022-08-11T21:17:00.328Z,58.93
2022-08-11T21:20:16.931Z,59.54
2022-08-11T21:23:28.326Z,60.02
2022-08-11T21:26:36.251Z,60.26
2022-08-11T21:29:42.070Z,60.84
2022-08-11T21:32:47.994Z,61.31
2022-08-11T21:35:51.833Z,61.82
2022-08-11T21:38:56.039Z,62.40
2022-08-11T21:41:59.822Z,62.70
2022-08-11T21:45:04.044Z,62.87
2022-08-11T21:48:10.024Z,63.26
2022-08-11T21:51:13.813Z,64.00
2022-08-11T21:54:19.029Z,64.43
2022-08-11T21:57:24.430Z,64.96
2022-08-11T22:00:28.662Z,65.26
2022-08-11T22:03:36.519Z,65.43
2022-08-11T22:06:54.087Z,66.00
2022-08-11T22:09:57.968Z,66.31
2022-08-11T22:13:01.992Z,66.41
2022-08-11T22:16:05.910Z,66.77
2022-08-11T22:19:10.724Z,67.56
2022-08-11T22:22:17.409Z,67.69
2022-08-11T22:25:22.491Z,68.42
2022-08-11T22:28:27.369Z,68.47
2022-08-11T22:31:31.746Z,68.50
2022-08-11T22:34:39.197Z,68.33
2022-08-11T22:37:58.705Z,68.67
2022-08-11T22:41:03.081Z,68.70
2022-08-11T22:44:07.024Z,69.39
2022-08-11T22:47:13.976Z,70.72
2022-08-11T22:50:23.555Z,72.13
2022-08-11T22:53:27.357Z,72.00
2022-08-11T22:56:52.507Z,72.45
2022-08-11T22:59:57.782Z,72.51
2022-08-11T23:03:01.613Z,72.22
2022-08-11T23:06:05.983Z,72.11
2022-08-11T23:09:11.367Z,72.83
2022-08-11T23:12:16.287Z,72.36
2022-08-11T23:15:19.943Z,72.28
2022-08-11T23:18:24.891Z,72.70
2022-08-11T23:21:32.244Z,73.41
2022-08-11T23:24:36.585Z,73.91
2022-08-11T23:27:42.317Z,74.07
2022-08-11T23:30:48.090Z,74.34
2022-08-11T23:33:55.467Z,75.60
2022-08-11T23:36:59.413Z,76.87
2022-08-11T23:40:03.144Z,78.07
2022-08-11T23:43:06.919Z,79.03
2022-08-11T23:46:10.702Z,79.08
2022-08-11T23:49:17.513Z,79.04
2022-08-11T23:52:22.425Z,78.74
2022-08-11T23:55:26.669Z,77.98
2022-08-11T23:58:30.366Z,78.38
